Time;durP1;ratioP1;P1;durP2;ratioP2;P2;SDS_P1;SDS_P2;PMS_P1;PMS_P2;Temp;Humidity;BMP_temperature;BMP_pressure;BME280_temperature;BME280_humidity;BME280_pressure;Samples;Min_cycle;Max_cycle;Signal;HPM_P1;HPM_P2
2023/08/12 00:00:41;;;;;;;3.55;3.22;;;;;;;19.67;100.00;96501.63;5102299;27;20036;-67
2023/08/12 00:03:07;;;;;;;6.72;3.17;;;;;;;19.67;100.00;96501.63;5102352;28;20049;-67
2023/08/12 00:05:32;;;;;;;4.90;4.43;;;;;;;19.68;100.00;96497.94;5103906;27;20062;-67
2023/08/12 00:07:58;;;;;;;8.70;8.00;;;;;;;19.70;100.00;96495.09;5104298;28;20043;-67
2023/08/12 00:10:23;;;;;;;8.20;5.80;;;;;;;19.75;100.00;96496.19;5103459;27;20038;-67
2023/08/12 00:12:49;;;;;;;4.57;4.00;;;;;;;19.80;100.00;96500.19;5101985;27;20042;-67
2023/08/12 00:15:14;;;;;;;3.35;3.15;;;;;;;19.73;100.00;96500.88;5102659;27;20542;-66
2023/08/12 00:17:41;;;;;;;3.20;3.00;;;;;;;19.68;100.00;96497.13;5108770;27;20051;-64
2023/08/12 00:20:08;;;;;;;3.30;3.00;;;;;;;19.64;100.00;96480.63;5106034;27;20023;-64
2023/08/12 00:22:34;;;;;;;4.38;2.92;;;;;;;19.47;100.00;96486.06;5102514;27;20032;-67
2023/08/12 00:25:00;;;;;;;4.35;2.55;;;;;;;19.29;100.00;96478.38;5110420;27;20069;-67
2023/08/12 00:27:25;;;;;;;5.45;3.13;;;;;;;19.23;100.00;96472.91;5109506;28;20020;-67
2023/08/12 00:29:51;;;;;;;3.50;3.20;;;;;;;19.21;100.00;96461.59;5103971;28;20089;-68
2023/08/12 00:32:16;;;;;;;5.20;4.00;;;;;;;19.22;100.00;96450.72;5104370;28;20448;-67
2023/08/12 00:34:42;;;;;;;3.42;3.13;;;;;;;19.17;100.00;96442.41;5106676;28;20023;-67
2023/08/12 00:37:07;;;;;;;3.42;3.08;;;;;;;19.15;100.00;96434.59;5087419;28;20020;-67
2023/08/12 00:39:32;;;;;;;3.53;3.30;;;;;;;19.16;100.00;96433.59;5107148;28;20027;-67
2023/08/12 00:41:58;;;;;;;4.95;3.00;;;;;;;19.20;100.00;96431.38;5102790;28;20073;-67
2023/08/12 00:44:23;;;;;;;4.32;3.03;;;;;;;19.14;100.00;96416.94;5106184;28;20863;-67
2023/08/12 00:46:50;;;;;;;4.55;2.90;;;;;;;19.09;100.00;96403.28;5101516;28;20106;-67
2023/08/12 00:49:16;;;;;;;3.47;3.28;;;;;;;19.08;100.00;96401.63;5102361;28;20027;-67
2023/08/12 00:51:44;;;;;;;6.03;3.20;;;;;;;19.06;100.00;96398.31;5101531;28;20039;-67
2023/08/12 00:54:14;;;;;;;3.33;2.97;;;;;;;19.07;100.00;96391.13;5100990;28;20027;-67
2023/08/12 00:56:40;;;;;;;4.63;3.67;;;;;;;19.08;100.00;96387.47;5104152;28;20046;-67
2023/08/12 00:59:08;;;;;;;3.90;3.25;;;;;;;19.06;100.00;96390.28;5104844;28;20641;-67
2023/08/12 01:01:35;;;;;;;3.17;2.88;;;;;;;19.06;100.00;96387.63;5100313;28;20146;-67
2023/08/12 01:04:00;;;;;;;3.30;3.10;;;;;;;19.06;100.00;96381.47;5107568;28;20554;-67
2023/08/12 01:06:25;;;;;;;3.20;2.92;;;;;;;19.04;100.00;96385.16;5106827;27;20027;-67
2023/08/12 01:08:51;;;;;;;3.92;3.20;;;;;;;19.06;100.00;96381.47;5109694;27;20030;-66
2023/08/12 01:11:26;;;;;;;3.45;3.00;;;;;;;19.08;100.00;96392.78;5109159;27;20028;-66
2023/08/12 01:14:39;;;;;;;3.55;3.20;;;;;;;19.06;100.00;96390.28;5112052;27;20077;-66
2023/08/12 01:17:08;;;;;;;3.28;2.97;;;;;;;19.10;100.00;96388.91;5062368;28;20147;-66
2023/08/12 01:19:36;;;;;;;5.18;3.08;;;;;;;19.14;100.00;96390.25;5106500;27;20050;-66
2023/08/12 01:22:03;;;;;;;3.00;2.78;;;;;;;19.08;100.00;96366.94;5105086;28;20024;-66
2023/08/12 01:24:43;;;;;;;3.70;3.40;;;;;;;19.06;100.00;96360.94;5103777;28;20090;-66
2023/08/12 01:27:11;;;;;;;4.35;3.20;;;;;;;19.03;100.00;96362.16;5106451;27;20023;-66
2023/08/12 01:29:44;;;;;;;4.05;3.47;;;;;;;19.01;100.00;96353.50;5103825;27;20614;-66
2023/08/12 01:32:30;;;;;;;3.42;3.03;;;;;;;18.98;100.00;96342.31;5106639;27;20039;-66
2023/08/12 01:35:18;;;;;;;3.50;3.30;;;;;;;18.94;100.00;96312.47;5103726;27;20039;-66
2023/08/12 01:37:45;;;;;;;6.15;3.20;;;;;;;18.94;100.00;96291.13;5107010;27;20031;-66
2023/08/12 01:40:13;;;;;;;4.38;3.50;;;;;;;18.90;100.00;96288.03;5104040;27;20020;-66
2023/08/12 01:42:40;;;;;;;3.55;3.33;;;;;;;18.89;100.00;96264.19;5110974;27;20484;-66
2023/08/12 01:45:06;;;;;;;3.65;3.33;;;;;;;18.89;100.00;96232.97;5106729;28;20028;-66
2023/08/12 01:47:32;;;;;;;3.35;3.15;;;;;;;18.94;100.00;96234.31;5106726;27;20081;-66
2023/08/12 01:49:58;;;;;;;4.35;2.97;;;;;;;18.96;100.00;96248.28;5108027;27;20032;-66
2023/08/12 01:52:23;;;;;;;3.10;2.88;;;;;;;18.93;100.00;96254.00;5106373;27;20019;-67
2023/08/12 01:54:49;;;;;;;3.75;3.45;;;;;;;18.97;100.00;96261.44;5106307;27;20476;-66
2023/08/12 01:57:14;;;;;;;3.60;2.97;;;;;;;18.92;100.00;96271.81;5114968;27;20027;-66
2023/08/12 01:59:41;;;;;;;3.58;3.28;;;;;;;18.85;100.00;96255.69;5105924;28;20031;-66
2023/08/12 02:02:06;;;;;;;3.85;3.22;;;;;;;18.84;100.00;96255.91;5107274;27;20073;-66
2023/08/12 02:04:32;;;;;;;3.75;3.38;;;;;;;18.82;100.00;96240.06;5107670;27;20027;-66
2023/08/12 02:06:58;;;;;;;3.35;3.15;;;;;;;18.88;100.00;96230.50;5106721;27;20452;-66
2023/08/12 02:09:23;;;;;;;3.95;3.58;;;;;;;18.92;100.00;96221.13;5107000;27;20024;-66
2023/08/12 02:11:49;;;;;;;3.35;3.15;;;;;;;18.89;100.00;96210.84;5105100;27;20027;-66
2023/08/12 02:14:15;;;;;;;3.58;3.38;;;;;;;18.89;100.00;96203.63;5104769;27;20039;-66
2023/08/12 02:16:40;;;;;;;4.68;3.40;;;;;;;18.91;100.00;96187.47;5104504;28;20032;-67
2023/08/12 02:19:06;;;;;;;3.38;3.08;;;;;;;18.92;100.00;96180.31;5105332;27;20030;-66
2023/08/12 02:21:32;;;;;;;3.83;2.90;;;;;;;18.89;100.00;96186.81;5103643;27;20023;-66
2023/08/12 02:23:57;;;;;;;3.38;3.17;;;;;;;18.84;100.00;96170.53;5106412;27;20026;-66
2023/08/12 02:26:23;;;;;;;5.18;3.15;;;;;;;18.83;100.00;96166.22;5110739;27;20023;-66
2023/08/12 02:28:48;;;;;;;4.93;3.40;;;;;;;18.87;100.00;96160.31;5105764;27;20043;-66
2023/08/12 02:31:15;;;;;;;5.07;3.67;;;;;;;18.90;100.00;96157.31;5106570;27;20024;-66
2023/08/12 02:33:40;;;;;;;4.03;3.00;;;;;;;18.86;100.00;96121.31;5104879;27;20078;-66
2023/08/12 02:36:06;;;;;;;3.30;3.10;;;;;;;18.80;100.00;96111.41;5101086;27;20035;-67
2023/08/12 02:38:31;;;;;;;3.95;3.00;;;;;;;18.80;100.00;96122.06;5104963;27;20026;-66
2023/08/12 02:40:57;;;;;;;3.50;3.30;;;;;;;18.81;100.00;96126.38;5103375;27;20031;-67
2023/08/12 02:43:22;;;;;;;5.65;3.47;;;;;;;18.80;100.00;96129.25;5102072;27;20083;-66
2023/08/12 02:45:47;;;;;;;3.50;3.20;;;;;;;18.75;100.00;96124.47;5108116;27;20028;-66
2023/08/12 02:48:13;;;;;;;3.67;3.38;;;;;;;18.67;100.00;96105.84;5107424;27;20027;-67
2023/08/12 02:50:39;;;;;;;3.97;3.40;;;;;;;18.60;100.00;96101.25;5102022;28;20034;-66
2023/08/12 02:53:05;;;;;;;3.50;3.20;;;;;;;18.55;100.00;96094.81;5103977;28;20630;-66
2023/08/12 02:55:32;;;;;;;3.70;3.40;;;;;;;18.49;100.00;96071.56;5102763;27;20403;-66
2023/08/12 02:57:58;;;;;;;4.78;3.28;;;;;;;18.51;100.00;96051.72;5106632;27;20023;-66
2023/08/12 03:00:23;;;;;;;3.47;2.67;;;;;;;18.52;100.00;96034.72;5106725;27;20030;-66
2023/08/12 03:02:48;;;;;;;3.80;3.50;;;;;;;18.50;100.00;96007.41;5104855;27;20016;-66
2023/08/12 03:05:14;;;;;;;3.85;3.50;;;;;;;18.49;100.00;96003.09;5106676;27;20430;-66
2023/08/12 03:07:39;;;;;;;3.53;3.22;;;;;;;18.42;100.00;96007.47;5105795;27;20481;-66
2023/08/12 03:10:06;;;;;;;3.20;2.92;;;;;;;18.42;100.00;95995.00;5106717;27;20088;-66
2023/08/12 03:12:31;;;;;;;4.10;3.20;;;;;;;18.45;100.00;95996.44;5107102;27;20105;-66
2023/08/12 03:14:57;;;;;;;3.63;3.20;;;;;;;18.41;100.00;95992.50;5105179;27;20059;-66
2023/08/12 03:17:22;;;;;;;4.03;3.63;;;;;;;18.37;100.00;96001.88;5106505;27;20561;-66
2023/08/12 03:19:49;;;;;;;7.80;3.20;;;;;;;18.33;100.00;95985.41;5106182;27;20016;-66
2023/08/12 03:22:14;;;;;;;3.20;2.92;;;;;;;18.29;100.00;95965.50;5114280;27;20027;-66
2023/08/12 03:24:39;;;;;;;3.95;3.53;;;;;;;18.22;100.00;95937.94;5104090;27;20028;-66
2023/08/12 03:27:05;;;;;;;4.05;3.00;;;;;;;18.21;100.00;95929.09;5106431;27;20099;-66
2023/08/12 03:29:30;;;;;;;4.30;3.42;;;;;;;18.20;100.00;95903.47;5107197;27;20498;-66
2023/08/12 03:31:56;;;;;;;3.55;3.22;;;;;;;18.16;100.00;95884.38;5099751;28;20396;-66
2023/08/12 03:34:21;;;;;;;3.47;3.17;;;;;;;18.15;100.00;95809.94;5104295;27;20063;-66
2023/08/12 03:36:48;;;;;;;3.65;3.22;;;;;;;18.16;100.00;95777.81;5106725;27;20454;-66
2023/08/12 03:39:14;;;;;;;4.28;3.78;;;;;;;18.20;100.00;95782.75;5106711;27;20144;-66
2023/08/12 03:41:39;;;;;;;4.30;3.90;;;;;;;18.22;100.00;95781.53;5108588;27;20083;-66
2023/08/12 03:44:05;;;;;;;5.40;4.00;;;;;;;18.21;100.00;95771.91;5101640;28;20015;-66
2023/08/12 03:46:31;;;;;;;4.50;3.67;;;;;;;18.20;100.00;95775.56;5105245;27;20151;-66
2023/08/12 03:48:56;;;;;;;4.15;3.63;;;;;;;18.22;100.00;95780.72;5108074;27;21602;-66
2023/08/12 03:51:22;;;;;;;3.67;3.40;;;;;;;18.24;100.00;95786.69;5108633;27;20126;-66
2023/08/12 03:53:47;;;;;;;3.38;3.13;;;;;;;18.18;100.00;95788.25;5101882;28;20027;-66
2023/08/12 03:56:15;;;;;;;3.70;3.40;;;;;;;18.22;100.00;95789.53;5107417;27;20095;-66
2023/08/12 03:58:41;;;;;;;4.00;3.60;;;;;;;18.25;100.00;95797.16;5110921;27;20103;-66
2023/08/12 04:01:06;;;;;;;5.28;3.38;;;;;;;18.28;100.00;95801.28;5106144;27;20043;-66
2023/08/12 04:03:31;;;;;;;4.63;3.80;;;;;;;18.25;100.00;95793.66;5103875;28;20023;-66
2023/08/12 04:05:57;;;;;;;4.10;3.67;;;;;;;18.23;100.00;95804.50;5102572;27;20023;-66
2023/08/12 04:08:23;;;;;;;3.85;3.13;;;;;;;18.23;100.00;95817.00;5085772;28;20026;-66
2023/08/12 04:10:49;;;;;;;3.83;3.53;;;;;;;18.20;100.00;95812.88;5095247;28;20023;-66
2023/08/12 04:13:15;;;;;;;4.25;3.40;;;;;;;18.16;100.00;95784.97;5103907;27;20118;-66
2023/08/12 04:15:41;;;;;;;4.32;3.67;;;;;;;18.06;100.00;95753.28;5101952;28;20065;-66
2023/08/12 04:18:07;;;;;;;3.92;3.60;;;;;;;17.95;100.00;95708.47;5103286;27;20027;-66
2023/08/12 04:20:32;;;;;;;4.25;3.30;;;;;;;17.92;100.00;95676.91;5102274;28;20020;-66
2023/08/12 04:22:57;;;;;;;4.70;3.63;;;;;;;17.93;100.00;95651.91;5105864;27;20099;-66
2023/08/12 04:25:23;;;;;;;4.30;3.67;;;;;;;17.88;100.00;95639.97;5101902;28;20022;-66
2023/08/12 04:27:49;;;;;;;3.85;3.45;;;;;;;17.85;100.00;95620.91;5101371;28;20489;-66
2023/08/12 04:30:18;;;;;;;4.00;3.63;;;;;;;17.81;100.00;95587.69;5101781;28;20023;-66
2023/08/12 04:32:44;;;;;;;4.03;3.55;;;;;;;17.83;100.00;95567.81;5105580;28;20024;-66
2023/08/12 04:35:10;;;;;;;5.35;3.95;;;;;;;17.84;100.00;95568.66;5107549;28;20034;-66
2023/08/12 04:37:36;;;;;;;4.15;3.10;;;;;;;17.79;100.00;95565.72;5103963;28;20050;-66
2023/08/12 04:40:04;;;;;;;5.03;3.33;;;;;;;17.81;100.00;95555.75;5101466;28;20020;-66
2023/08/12 04:42:30;;;;;;;3.95;3.53;;;;;;;17.76;100.00;95521.69;5104493;28;20032;-66
2023/08/12 04:44:58;;;;;;;3.88;3.38;;;;;;;17.70;100.00;95496.66;5104042;28;20098;-66
2023/08/12 04:47:23;;;;;;;3.80;3.45;;;;;;;17.70;100.00;95456.72;5105043;28;20435;-66
2023/08/12 04:49:49;;;;;;;4.78;3.30;;;;;;;17.73;100.00;95466.16;5103566;28;20041;-66
2023/08/12 04:52:14;;;;;;;3.85;3.38;;;;;;;17.73;100.00;95452.88;5104641;28;20023;-66
2023/08/12 04:54:40;;;;;;;3.63;3.33;;;;;;;17.70;100.00;95437.28;5102353;28;20054;-66
2023/08/12 04:57:05;;;;;;;4.63;3.60;;;;;;;17.68;100.00;95421.47;5103976;28;20023;-66
2023/08/12 04:59:31;;;;;;;3.47;3.20;;;;;;;17.71;100.00;95425.63;5108778;28;20019;-66
2023/08/12 05:01:56;;;;;;;3.63;3.33;;;;;;;17.72;100.00;95424.59;5103329;28;20028;-66
2023/08/12 05:04:22;;;;;;;8.27;3.72;;;;;;;17.72;100.00;95433.38;5110181;28;20099;-66
2023/08/12 05:06:47;;;;;;;4.32;3.80;;;;;;;17.68;100.00;95431.28;5102332;28;20020;-66
2023/08/12 05:09:13;;;;;;;4.15;3.47;;;;;;;17.61;100.00;95420.63;5106649;28;20024;-66
2023/08/12 05:11:39;;;;;;;5.20;3.72;;;;;;;17.55;100.00;95392.09;5103468;28;20174;-66
2023/08/12 05:14:04;;;;;;;5.35;3.42;;;;;;;17.55;100.00;95379.63;5103843;28;20106;-66
2023/08/12 05:16:29;;;;;;;4.65;3.58;;;;;;;17.57;100.00;95345.66;5099456;28;20024;-66
2023/08/12 05:18:55;;;;;;;3.70;3.50;;;;;;;17.60;100.00;95336.47;5100680;28;20020;-66
2023/08/12 05:21:20;;;;;;;5.20;3.42;;;;;;;17.60;100.00;95334.63;5103343;28;20047;-66
2023/08/12 05:23:46;;;;;;;3.65;3.35;;;;;;;17.58;100.00;95335.84;5101052;28;20024;-66
2023/08/12 05:26:11;;;;;;;7.03;4.10;;;;;;;17.61;100.00;95336.25;5103250;28;20022;-66
2023/08/12 05:28:36;;;;;;;3.97;3.58;;;;;;;17.66;100.00;95338.34;5099628;28;20040;-66
2023/08/12 05:31:02;;;;;;;4.00;3.60;;;;;;;17.69;100.00;95332.63;5099531;28;20031;-66
2023/08/12 05:33:27;;;;;;;4.20;3.67;;;;;;;17.76;100.00;95324.69;5103595;28;20019;-66
2023/08/12 05:35:53;;;;;;;4.20;3.78;;;;;;;17.82;100.00;95320.41;5102171;28;20078;-66
2023/08/12 05:38:18;;;;;;;6.18;4.00;;;;;;;17.87;100.00;95323.31;5106292;28;20054;-67
2023/08/12 05:40:43;;;;;;;10.75;3.92;;;;;;;17.90;100.00;95325.56;5104295;28;20020;-66
2023/08/12 05:43:09;;;;;;;8.05;3.70;;;;;;;17.95;100.00;95332.97;5102314;28;20031;-66
2023/08/12 05:45:34;;;;;;;4.45;3.80;;;;;;;17.94;100.00;95334.00;5098951;28;20116;-66
2023/08/12 05:47:59;;;;;;;12.38;4.10;;;;;;;17.94;100.00;95329.47;5090333;28;20059;-66
2023/08/12 05:50:25;;;;;;;4.68;3.35;;;;;;;17.94;100.00;95331.34;5103671;28;20016;-66
2023/08/12 05:52:50;;;;;;;4.18;3.78;;;;;;;18.01;100.00;95319.69;5101998;28;20035;-66
2023/08/12 05:55:16;;;;;;;3.90;3.50;;;;;;;18.20;100.00;95327.97;5105304;28;20477;-66
2023/08/12 05:57:41;;;;;;;3.78;3.47;;;;;;;18.30;100.00;95333.78;5103086;27;20403;-67
2023/08/12 06:00:07;;;;;;;5.07;3.67;;;;;;;18.44;100.00;95344.47;5105981;27;20027;-66
2023/08/12 06:02:33;;;;;;;6.75;3.80;;;;;;;18.50;100.00;95362.34;5105581;27;20034;-66
2023/08/12 06:04:58;;;;;;;4.97;3.72;;;;;;;18.65;100.00;95372.00;5101568;27;20553;-66
2023/08/12 06:07:24;;;;;;;4.40;3.75;;;;;;;18.85;100.00;95404.09;5111766;27;20035;-66
2023/08/12 06:09:50;;;;;;;4.07;3.25;;;;;;;18.94;100.00;95440.22;5111087;27;20062;-66
2023/08/12 06:12:16;;;;;;;4.07;3.40;;;;;;;19.03;100.00;95472.88;5103836;27;20032;-66
2023/08/12 06:14:42;;;;;;;3.67;3.28;;;;;;;19.07;100.00;95498.13;5107486;27;20539;-66
2023/08/12 06:17:07;;;;;;;4.60;3.22;;;;;;;19.09;100.00;95504.09;5106485;27;20111;-66
2023/08/12 06:19:33;;;;;;;5.07;3.55;;;;;;;19.16;100.00;95504.97;5103464;27;20057;-66
2023/08/12 06:21:58;;;;;;;5.18;3.30;;;;;;;19.32;100.00;95511.78;5108681;27;20123;-66
2023/08/12 06:24:24;;;;;;;6.18;3.50;;;;;;;19.52;100.00;95518.16;5106439;27;20544;-66
2023/08/12 06:26:49;;;;;;;7.75;3.25;;;;;;;19.66;100.00;95548.38;5103516;27;20029;-66
2023/08/12 06:29:14;;;;;;;4.00;3.67;;;;;;;19.75;100.00;95573.88;5105528;27;20127;-66
2023/08/12 06:31:40;;;;;;;6.22;4.97;;;;;;;19.84;100.00;95590.53;5105689;27;20024;-66
2023/08/12 06:34:05;;;;;;;8.18;3.92;;;;;;;19.94;100.00;95603.53;5108258;27;20058;-66
2023/08/12 06:36:31;;;;;;;8.43;3.97;;;;;;;20.07;100.00;95619.56;5109402;27;20037;-66
2023/08/12 06:38:56;;;;;;;5.25;3.58;;;;;;;20.25;100.00;95652.91;5105529;27;20092;-66
2023/08/12 06:41:22;;;;;;;3.92;3.42;;;;;;;20.46;100.00;95692.81;5110097;27;20084;-66
2023/08/12 06:43:47;;;;;;;5.22;3.20;;;;;;;20.69;100.00;95696.94;5105093;27;20020;-66
2023/08/12 06:46:13;;;;;;;5.00;3.40;;;;;;;20.91;100.00;95718.16;5109725;27;20392;-66
2023/08/12 06:48:38;;;;;;;3.60;3.30;;;;;;;21.11;100.00;95744.09;5103535;27;20731;-66
2023/08/12 06:51:10;;;;;;;4.53;3.42;;;;;;;21.18;100.00;95752.94;5109067;27;20107;-66
2023/08/12 06:53:39;;;;;;;4.53;3.17;;;;;;;21.19;100.00;95767.97;5106275;27;20020;-66
2023/08/12 06:56:05;;;;;;;7.10;3.17;;;;;;;21.27;100.00;95799.06;5102579;27;20110;-66
2023/08/12 06:58:30;;;;;;;4.28;3.10;;;;;;;21.49;100.00;95820.25;5107982;27;20506;-66
2023/08/12 07:00:56;;;;;;;4.35;3.13;;;;;;;21.81;100.00;95848.06;5109674;27;20011;-66
2023/08/12 07:03:22;;;;;;;3.35;3.05;;;;;;;22.16;100.00;95876.41;5109399;27;20024;-66
2023/08/12 07:05:48;;;;;;;8.38;3.00;;;;;;;22.43;100.00;95930.81;5107080;27;20032;-66
2023/08/12 07:08:13;;;;;;;11.43;2.92;;;;;;;22.67;100.00;95935.72;5105231;27;20156;-66
2023/08/12 07:10:39;;;;;;;4.55;2.72;;;;;;;23.09;100.00;95954.09;5109579;27;20043;-66
2023/08/12 07:13:05;;;;;;;4.40;3.10;;;;;;;23.57;100.00;95972.41;5102993;27;20034;-66
2023/08/12 07:15:30;;;;;;;3.17;2.78;;;;;;;23.97;100.00;95986.59;5112677;27;20019;-66
2023/08/12 07:17:57;;;;;;;4.53;2.80;;;;;;;24.25;100.00;96031.91;5101531;27;20494;-66
2023/08/12 07:20:24;;;;;;;3.15;2.95;;;;;;;23.99;100.00;96062.47;5108359;27;20020;-66
2023/08/12 07:22:49;;;;;;;5.03;3.00;;;;;;;23.65;100.00;96070.75;5104749;27;20036;-66
2023/08/12 07:25:15;;;;;;;3.00;2.80;;;;;;;23.28;100.00;96087.47;5107084;27;20061;-67
2023/08/12 07:27:40;;;;;;;3.92;3.38;;;;;;;23.06;100.00;96099.50;5103046;27;20035;-66
2023/08/12 07:30:07;;;;;;;3.63;2.72;;;;;;;22.82;100.00;96104.53;5104640;27;20055;-66
2023/08/12 07:32:33;;;;;;;2.97;2.75;;;;;;;22.62;100.00;96097.31;5107128;27;20020;-66
2023/08/12 07:34:58;;;;;;;4.82;3.22;;;;;;;22.55;100.00;96104.56;5103799;27;20023;-66
2023/08/12 07:37:24;;;;;;;5.95;2.75;;;;;;;22.50;100.00;96115.91;5110148;27;20053;-66
2023/08/12 07:39:49;;;;;;;5.20;3.38;;;;;;;22.38;100.00;96112.16;5106562;27;20015;-66
2023/08/12 07:42:14;;;;;;;3.25;2.95;;;;;;;22.41;100.00;96112.56;5097983;28;20045;-66
2023/08/12 07:44:40;;;;;;;5.75;3.03;;;;;;;22.45;100.00;96121.03;5103044;27;20030;-66
2023/08/12 07:47:05;;;;;;;5.43;2.95;;;;;;;22.44;100.00;96124.75;5104260;27;20031;-67
2023/08/12 07:49:30;;;;;;;3.38;3.05;;;;;;;22.46;100.00;96131.59;5106729;27;20091;-66
2023/08/12 07:51:56;;;;;;;4.32;2.70;;;;;;;22.51;100.00;96141.69;5103412;27;20027;-67
2023/08/12 07:54:21;;;;;;;5.22;2.97;;;;;;;22.51;100.00;96141.69;5106100;27;20120;-66
2023/08/12 07:56:47;;;;;;;4.40;3.15;;;;;;;22.50;100.00;96152.63;5109028;27;20053;-66
2023/08/12 07:59:12;;;;;;;3.72;3.00;;;;;;;22.40;100.00;96150.31;5089250;27;20075;-66
2023/08/12 08:01:37;;;;;;;3.53;3.22;;;;;;;22.30;100.00;96145.34;5094117;28;20027;-66
2023/08/12 08:04:03;;;;;;;5.70;3.22;;;;;;;22.24;100.00;96140.81;5104172;27;20051;-66
2023/08/12 08:06:29;;;;;;;3.78;2.88;;;;;;;22.25;100.00;96148.69;5108645;27;20023;-66
2023/08/12 08:08:55;;;;;;;4.63;3.13;;;;;;;22.24;100.00;96154.22;5086427;28;20019;-66
2023/08/12 08:11:21;;;;;;;4.93;3.28;;;;;;;22.19;100.00;96162.88;5108161;27;20020;-66
2023/08/12 08:13:46;;;;;;;3.20;2.80;;;;;;;22.16;100.00;96165.97;5108386;27;20020;-66
2023/08/12 08:16:11;;;;;;;5.72;2.95;;;;;;;22.16;100.00;96163.28;5109161;27;20023;-66
2023/08/12 08:18:37;;;;;;;5.07;2.65;;;;;;;22.18;100.00;96174.63;5104373;27;20050;-66
2023/08/12 08:21:02;;;;;;;8.13;3.10;;;;;;;22.36;100.00;96192.00;5101318;28;20019;-66
2023/08/12 08:23:28;;;;;;;4.45;2.63;;;;;;;22.51;100.00;96199.88;5110679;27;20028;-66
2023/08/12 08:25:53;;;;;;;3.90;3.08;;;;;;;22.69;100.00;96213.50;5108837;28;20149;-66
2023/08/12 08:28:18;;;;;;;5.15;3.13;;;;;;;22.80;100.00;96222.81;5097563;28;20058;-66
2023/08/12 08:30:44;;;;;;;6.85;3.00;;;;;;;22.82;100.00;96226.09;5109767;28;20019;-66
2023/08/12 08:33:09;;;;;;;3.33;2.92;;;;;;;23.18;100.00;96230.22;5106582;27;20020;-66
2023/08/12 08:35:35;;;;;;;4.88;2.90;;;;;;;23.86;100.00;96228.19;5101835;28;20486;-66
2023/08/12 08:38:00;;;;;;;4.95;2.80;;;;;;;24.51;100.00;96234.50;5106401;28;20019;-66
2023/08/12 08:40:27;;;;;;;3.38;3.00;;;;;;;24.71;100.00;96244.31;5101854;28;20703;-66
2023/08/12 08:42:53;;;;;;;6.03;3.10;;;;;;;24.48;100.00;96259.16;5102106;28;20099;-67
2023/08/12 08:45:21;;;;;;;8.27;3.08;;;;;;;24.49;100.00;96276.13;5103826;28;20024;-66
2023/08/12 08:47:48;;;;;;;5.07;3.20;;;;;;;24.94;100.00;96270.66;5104031;28;20020;-67
2023/08/12 08:50:14;;;;;;;3.42;3.00;;;;;;;25.79;100.00;96268.44;5105337;28;20028;-66
2023/08/12 08:52:39;;;;;;;4.63;2.67;;;;;;;26.24;100.00;96271.88;5102029;28;20419;-67
2023/08/12 08:55:05;;;;;;;2.95;2.70;;;;;;;26.26;100.00;96278.69;5105029;28;20081;-66
2023/08/12 08:57:32;;;;;;;3.00;2.67;;;;;;;26.26;100.00;96286.81;5106090;28;20502;-67
2023/08/12 08:59:57;;;;;;;5.90;2.85;;;;;;;26.41;100.00;96299.03;5100702;28;20019;-66
2023/08/12 09:02:24;;;;;;;6.05;3.03;;;;;;;26.25;100.00;96305.91;5102400;28;20020;-67
2023/08/12 09:04:50;;;;;;;7.30;2.92;;;;;;;26.51;100.00;96293.94;5105735;28;20020;-67
2023/08/12 09:07:15;;;;;;;3.72;3.30;;;;;;;27.16;100.00;96296.94;5104077;28;20145;-67
2023/08/12 09:09:46;;;;;;;3.15;2.72;;;;;;;27.81;100.00;96294.41;5100603;28;20102;-64
2023/08/12 09:12:14;;;;;;;3.85;3.00;;;;;;;28.17;100.00;96297.84;5104186;28;20023;-64
2023/08/12 09:14:40;;;;;;;4.82;2.50;;;;;;;28.61;100.00;96300.06;5107045;28;20140;-64
2023/08/12 09:17:07;;;;;;;2.60;2.50;;;;;;;28.95;100.00;96312.88;5102943;28;20016;-64
2023/08/12 09:19:32;;;;;;;4.13;2.50;;;;;;;29.15;100.00;96329.50;5106398;28;20019;-64
2023/08/12 09:21:58;;;;;;;3.05;2.75;;;;;;;29.31;100.00;96316.19;5105934;28;20016;-64
2023/08/12 09:24:24;;;;;;;5.20;3.00;;;;;;;29.38;100.00;96319.56;5099970;28;20024;-67
2023/08/12 09:26:55;;;;;;;3.60;2.65;;;;;;;29.55;100.00;96316.03;5101662;28;20051;-64
2023/08/12 09:29:31;;;;;;;2.63;2.42;;;;;;;29.51;100.00;96320.31;5107887;27;20078;-64
2023/08/12 09:32:25;;;;;;;2.97;2.65;;;;;;;29.69;100.00;96321.94;5108406;27;20073;-64
2023/08/12 09:34:52;;;;;;;3.60;2.53;;;;;;;29.88;100.00;96327.91;5103659;27;20032;-64
2023/08/12 09:37:19;;;;;;;4.05;2.83;;;;;;;29.96;100.00;96332.91;5106043;27;20054;-64
2023/08/12 09:39:46;;;;;;;4.20;2.30;;;;;;;30.21;100.00;96333.50;5102821;27;20023;-64
2023/08/12 09:42:12;;;;;;;3.85;2.40;;;;;;;30.06;100.00;96331.41;5104864;27;20027;-64
2023/08/12 09:44:39;;;;;;;4.57;2.70;;;;;;;30.21;100.00;96326.19;5109951;27;20028;-65
2023/08/12 09:47:05;;;;;;;2.38;2.17;;;;;;;30.45;100.00;96337.59;5108626;27;20023;-64
2023/08/12 09:49:31;;;;;;;3.70;2.53;;;;;;;30.59;100.00;96340.75;5108020;27;20480;-64
2023/08/12 09:51:57;;;;;;;8.75;2.70;;;;;;;30.54;100.00;96329.81;5110005;27;20039;-64
2023/08/12 09:54:24;;;;;;;3.75;2.60;;;;;;;30.85;100.00;96332.91;5106637;27;20047;-64
2023/08/12 09:56:56;;;;;;;2.78;2.17;;;;;;;31.13;100.00;96328.28;5110577;27;20020;-65
2023/08/12 09:59:22;;;;;;;2.83;2.53;;;;;;;31.25;100.00;96324.56;5106198;27;20039;-64
2023/08/12 10:01:53;;;;;;;3.08;2.78;;;;;;;31.09;100.00;96316.28;5106558;27;20015;-65
2023/08/12 10:04:22;;;;;;;2.67;2.47;;;;;;;30.90;100.00;96318.53;5110517;27;20016;-64
2023/08/12 10:06:48;;;;;;;6.68;2.80;;;;;;;30.81;100.00;96310.03;5107704;27;20112;-64
2023/08/12 10:09:15;;;;;;;3.83;2.65;;;;;;;30.77;100.00;96325.19;5111251;27;20055;-65
2023/08/12 10:11:41;;;;;;;2.85;2.47;;;;;;;30.80;100.00;96318.44;5107607;27;20026;-64
2023/08/12 10:14:09;;;;;;;2.63;2.40;;;;;;;30.84;100.00;96319.56;5108576;27;20526;-64
2023/08/12 10:16:35;;;;;;;5.80;3.10;;;;;;;30.82;100.00;96317.09;5102493;27;20032;-64
2023/08/12 10:19:04;;;;;;;3.70;2.70;;;;;;;31.02;100.00;96307.50;5105998;27;20046;-64
2023/08/12 10:21:29;;;;;;;3.67;2.65;;;;;;;31.40;100.00;96302.94;5107948;27;20059;-64
2023/08/12 10:23:57;;;;;;;2.58;2.38;;;;;;;31.23;100.00;96307.69;5110822;27;20057;-65
2023/08/12 10:26:24;;;;;;;5.05;2.63;;;;;;;31.25;100.00;96303.66;5110460;27;20019;-64
2023/08/12 10:28:49;;;;;;;5.40;2.72;;;;;;;31.66;100.00;96302.31;5108356;27;20063;-64
2023/08/12 10:31:15;;;;;;;2.47;2.28;;;;;;;31.80;100.00;96311.66;5106894;27;20695;-64
2023/08/12 10:33:41;;;;;;;3.50;2.60;;;;;;;31.89;100.00;96303.81;5102030;27;20499;-64
2023/08/12 10:36:07;;;;;;;4.35;2.67;;;;;;;32.11;100.00;96302.81;5110098;27;20054;-64
2023/08/12 10:38:34;;;;;;;2.92;2.55;;;;;;;32.47;100.00;96300.28;5104182;27;20027;-64
2023/08/12 10:41:19;;;;;;;4.53;2.53;;;;;;;32.45;100.00;96297.00;5110028;27;20061;-64
2023/08/12 10:43:58;;;;;;;3.83;2.28;;;;;;;32.47;100.00;96294.81;5103392;27;20024;-64
2023/08/12 10:46:37;;;;;;;3.65;3.08;;;;;;;32.67;100.00;96287.78;5112778;27;20340;-64
2023/08/12 10:49:08;;;;;;;3.13;2.92;;;;;;;32.90;100.00;96288.38;5111377;27;20024;-64
2023/08/12 10:51:49;;;;;;;3.20;2.90;;;;;;;33.07;100.00;96290.84;5109576;27;20019;-64
2023/08/12 10:54:26;;;;;;;6.15;2.30;;;;;;;33.25;100.00;96287.56;5112403;27;20020;-64
2023/08/12 10:57:10;;;;;;;4.25;2.30;;;;;;;33.12;100.00;96278.03;5102203;27;20054;-64
2023/08/12 10:59:45;;;;;;;5.43;2.55;;;;;;;33.39;100.00;96271.47;5103040;27;20042;-64
2023/08/12 11:02:20;;;;;;;2.70;2.50;;;;;;;33.48;100.00;96279.13;5108437;27;20016;-64
2023/08/12 11:04:54;;;;;;;5.28;2.60;;;;;;;33.52;100.00;96272.03;5106411;27;20452;-64
2023/08/12 11:07:21;;;;;;;6.28;2.75;;;;;;;33.60;100.00;96276.91;5112477;27;20023;-65
2023/08/12 11:09:52;;;;;;;5.20;2.72;;;;;;;33.85;100.00;96269.75;5103912;28;20047;-64
2023/08/12 11:12:27;;;;;;;2.70;2.50;;;;;;;34.11;100.00;96275.97;5104733;27;20054;-64
2023/08/12 11:14:53;;;;;;;3.65;2.47;;;;;;;34.21;100.00;96261.47;5108171;27;20067;-64
2023/08/12 11:17:19;;;;;;;3.80;2.50;;;;;;;34.40;100.00;96267.09;5110467;27;20024;-65
2023/08/12 11:19:44;;;;;;;4.53;2.40;;;;;;;34.73;100.00;96254.91;5106486;27;20060;-64
2023/08/12 11:22:12;;;;;;;5.85;2.33;;;;;;;34.65;100.00;96262.59;5111824;27;20044;-65